Time;durP1;ratioP1;P1;durP2;ratioP2;P2;SDS_P1;SDS_P2;PMS_P1;PMS_P2;Temp;Humidity;BMP_temperature;BMP_pressure;BME280_temperature;BME280_humidity;BME280_pressure;Samples;Min_cycle;Max_cycle;Signal;HPM_P1;HPM_P2
2022/10/19 00:01:57;;;;;;;5.60;2.28;;;;;;;;;;4953008;28;20047;-79
2022/10/19 00:04:23;;;;;;;6.25;2.83;;;;;;;;;;4956050;28;20047;-79
2022/10/19 00:06:49;;;;;;;6.30;2.00;;;;;;;;;;4973864;28;20440;-79
2022/10/19 00:09:17;;;;;;;7.13;2.05;;;;;;;;;;4974276;28;20051;-79
2022/10/19 00:11:45;;;;;;;6.28;2.30;;;;;;;;;;4973661;28;20376;-79
2022/10/19 00:14:13;;;;;;;5.78;2.08;;;;;;;;;;4973424;28;20051;-79
2022/10/19 00:16:39;;;;;;;6.88;2.00;;;;;;;;;;4954270;29;20130;-79
2022/10/19 00:19:10;;;;;;;8.95;2.20;;;;;;;;;;4960621;28;20096;-79
2022/10/19 00:21:38;;;;;;;6.35;1.90;;;;;;;;;;4973645;28;20043;-79
2022/10/19 00:24:04;;;;;;;8.52;2.03;;;;;;;;;;4973540;28;20073;-79
2022/10/19 00:26:30;;;;;;;8.60;2.20;;;;;;;;;;4961647;28;20059;-79
2022/10/19 00:28:57;;;;;;;3.95;1.42;;;;;;;;;;4973664;28;20054;-79
2022/10/19 00:31:24;;;;;;;7.65;2.33;;;;;;;;;;4973505;28;20126;-79
2022/10/19 00:33:50;;;;;;;7.70;2.03;;;;;;;;;;4972290;28;20468;-79
2022/10/19 00:36:21;;;;;;;6.72;1.90;;;;;;;;;;4952967;28;20043;-79
2022/10/19 00:38:47;;;;;;;6.50;2.35;;;;;;;;;;4954094;28;20370;-79
2022/10/19 00:41:13;;;;;;;10.80;2.22;;;;;;;;;;4953647;28;20552;-79
2022/10/19 00:43:59;;;;;;;5.10;1.70;;;;;;;;;;4953968;28;20177;-79
2022/10/19 00:46:27;;;;;;;5.35;2.42;;;;;;;;;;4971228;28;20050;-79
2022/10/19 00:48:55;;;;;;;6.55;1.85;;;;;;;;;;4973176;28;20047;-79
2022/10/19 00:51:21;;;;;;;4.53;1.60;;;;;;;;;;4972825;28;20046;-79
2022/10/19 00:53:47;;;;;;;6.00;1.77;;;;;;;;;;4973104;28;20047;-79
2022/10/19 00:56:15;;;;;;;6.13;1.77;;;;;;;;;;4971887;28;20043;-79
2022/10/19 00:58:42;;;;;;;4.88;2.03;;;;;;;;;;4972665;28;20039;-79
2022/10/19 01:01:09;;;;;;;7.03;1.98;;;;;;;;;;4972974;28;20100;-79
2022/10/19 01:03:35;;;;;;;3.33;1.75;;;;;;;;;;4959893;28;20055;-79
2022/10/19 01:06:02;;;;;;;7.82;2.35;;;;;;;;;;4953766;28;20047;-79
2022/10/19 01:08:28;;;;;;;5.70;1.80;;;;;;;;;;4936144;28;20051;-79
2022/10/19 01:11:02;;;;;;;6.95;1.70;;;;;;;;;;4953512;28;20043;-79
2022/10/19 01:13:27;;;;;;;6.88;1.88;;;;;;;;;;4953465;28;20055;-79
2022/10/19 01:15:58;;;;;;;6.57;1.95;;;;;;;;;;4963617;28;20112;-79
2022/10/19 01:18:45;;;;;;;8.65;1.83;;;;;;;;;;4959174;28;20090;-79
2022/10/19 01:21:21;;;;;;;5.43;1.83;;;;;;;;;;4953491;29;20047;-79
2022/10/19 01:24:05;;;;;;;7.78;1.90;;;;;;;;;;4954318;28;20048;-79
2022/10/19 01:26:31;;;;;;;7.63;2.50;;;;;;;;;;4952740;28;20056;-79
2022/10/19 01:29:00;;;;;;;6.00;1.77;;;;;;;;;;4954360;28;20070;-79
2022/10/19 01:31:45;;;;;;;7.00;1.88;;;;;;;;;;4953269;28;20465;-79
2022/10/19 01:34:18;;;;;;;5.80;1.77;;;;;;;;;;4952055;28;20070;-79
2022/10/19 01:37:10;;;;;;;5.03;2.00;;;;;;;;;;4970077;28;20092;-79
2022/10/19 01:39:39;;;;;;;8.15;2.38;;;;;;;;;;4972083;28;20477;-79
2022/10/19 01:42:28;;;;;;;5.63;2.08;;;;;;;;;;4972309;28;20087;-79
2022/10/19 01:45:00;;;;;;;7.50;2.33;;;;;;;;;;4972252;28;20047;-79
2022/10/19 01:47:38;;;;;;;6.40;2.35;;;;;;;;;;4963850;28;20055;-79
2022/10/19 01:50:16;;;;;;;7.35;2.28;;;;;;;;;;4972330;28;20047;-79
2022/10/19 01:52:42;;;;;;;4.82;2.25;;;;;;;;;;4972294;28;20089;-79
2022/10/19 01:55:10;;;;;;;5.35;1.70;;;;;;;;;;4968334;28;20096;-79
2022/10/19 01:57:38;;;;;;;5.30;1.85;;;;;;;;;;4952573;28;20446;-79
2022/10/19 02:00:06;;;;;;;8.02;2.25;;;;;;;;;;4967960;28;20387;-79
2022/10/19 02:02:34;;;;;;;10.35;2.42;;;;;;;;;;4972095;28;20047;-79
2022/10/19 02:05:01;;;;;;;8.15;2.15;;;;;;;;;;4968971;28;21959;-79
2022/10/19 02:07:28;;;;;;;7.35;2.08;;;;;;;;;;4956153;28;20128;-79
2022/10/19 02:09:54;;;;;;;5.63;2.15;;;;;;;;;;4952698;28;20317;-79
2022/10/19 02:12:20;;;;;;;6.78;1.83;;;;;;;;;;4952054;28;20047;-79
2022/10/19 02:14:48;;;;;;;4.68;2.25;;;;;;;;;;4952513;28;20047;-79
2022/10/19 02:17:16;;;;;;;8.68;2.35;;;;;;;;;;4952567;28;20058;-79
2022/10/19 02:19:43;;;;;;;9.68;2.35;;;;;;;;;;4952569;29;20075;-79
2022/10/19 02:22:09;;;;;;;10.70;2.47;;;;;;;;;;4952591;28;20109;-79
2022/10/19 02:24:35;;;;;;;6.15;2.40;;;;;;;;;;4952262;28;20482;-79
2022/10/19 02:27:03;;;;;;;10.13;2.28;;;;;;;;;;4968899;28;20043;-79
2022/10/19 02:29:30;;;;;;;4.93;1.70;;;;;;;;;;4954469;28;20126;-79
2022/10/19 02:31:56;;;;;;;9.27;2.00;;;;;;;;;;4952917;29;20063;-79
2022/10/19 02:34:22;;;;;;;7.57;2.70;;;;;;;;;;4952372;29;20051;-79
2022/10/19 02:36:48;;;;;;;9.75;2.42;;;;;;;;;;4952328;29;20043;-79
2022/10/19 02:39:14;;;;;;;6.25;2.13;;;;;;;;;;4952279;28;20051;-79
2022/10/19 02:41:43;;;;;;;7.65;2.17;;;;;;;;;;4951991;28;20406;-79
2022/10/19 02:44:14;;;;;;;5.72;2.00;;;;;;;;;;4951927;28;20053;-79
2022/10/19 02:46:43;;;;;;;8.80;2.58;;;;;;;;;;4966272;28;20159;-79
2022/10/19 02:49:09;;;;;;;7.60;2.15;;;;;;;;;;4972028;28;20075;-79
2022/10/19 02:51:37;;;;;;;5.07;2.17;;;;;;;;;;4953993;28;20047;-79
2022/10/19 02:54:03;;;;;;;9.52;2.30;;;;;;;;;;4971622;28;20050;-79
2022/10/19 02:56:29;;;;;;;7.53;2.05;;;;;;;;;;4970876;28;20126;-79
2022/10/19 02:58:55;;;;;;;7.18;2.10;;;;;;;;;;4954177;28;20452;-79
2022/10/19 03:01:22;;;;;;;11.43;2.50;;;;;;;;;;4952623;29;20067;-79
2022/10/19 03:03:48;;;;;;;6.38;2.00;;;;;;;;;;4952182;28;20130;-79
2022/10/19 03:06:14;;;;;;;4.72;1.73;;;;;;;;;;4951986;29;20050;-79
2022/10/19 03:08:40;;;;;;;9.25;2.60;;;;;;;;;;4952546;28;20047;-79
2022/10/19 03:11:06;;;;;;;11.68;2.42;;;;;;;;;;4950381;29;20046;-79
2022/10/19 03:13:32;;;;;;;8.43;2.10;;;;;;;;;;4951740;28;20506;-79
2022/10/19 03:16:04;;;;;;;5.40;1.85;;;;;;;;;;4951865;28;20039;-79
2022/10/19 03:18:30;;;;;;;9.00;2.05;;;;;;;;;;4952024;29;20066;-79
2022/10/19 03:21:07;;;;;;;9.68;2.08;;;;;;;;;;4950383;29;20057;-79
2022/10/19 03:23:33;;;;;;;7.88;2.13;;;;;;;;;;4954656;29;20043;-79
2022/10/19 03:25:59;;;;;;;8.43;2.65;;;;;;;;;;4954619;29;20109;-79
2022/10/19 03:28:26;;;;;;;10.40;2.30;;;;;;;;;;4956573;28;20051;-79
2022/10/19 03:30:52;;;;;;;7.50;2.13;;;;;;;;;;4975162;28;20043;-79
2022/10/19 03:33:18;;;;;;;7.95;2.15;;;;;;;;;;4962740;28;20401;-79
2022/10/19 03:35:44;;;;;;;6.32;2.00;;;;;;;;;;4955125;28;20504;-79
2022/10/19 03:38:10;;;;;;;9.90;2.55;;;;;;;;;;4955173;28;20126;-79
2022/10/19 03:40:36;;;;;;;7.57;2.17;;;;;;;;;;4954827;28;20055;-79
2022/10/19 03:43:02;;;;;;;6.15;2.10;;;;;;;;;;4955250;28;20047;-79
2022/10/19 03:45:28;;;;;;;7.53;2.33;;;;;;;;;;4954866;28;20054;-79
2022/10/19 03:47:54;;;;;;;5.80;2.05;;;;;;;;;;4955139;28;20113;-79
2022/10/19 03:50:20;;;;;;;8.27;2.15;;;;;;;;;;4953691;28;20047;-79
2022/10/19 03:52:48;;;;;;;8.68;2.42;;;;;;;;;;4962272;28;20042;-79
2022/10/19 03:55:14;;;;;;;9.10;2.03;;;;;;;;;;4973841;28;20379;-79
2022/10/19 03:57:41;;;;;;;7.78;2.10;;;;;;;;;;4974551;28;20118;-79
2022/10/19 04:00:07;;;;;;;6.78;2.20;;;;;;;;;;4974595;28;20054;-79
2022/10/19 04:02:33;;;;;;;6.78;2.20;;;;;;;;;;4974236;28;20049;-79
2022/10/19 04:04:59;;;;;;;8.43;2.30;;;;;;;;;;4973652;28;20494;-79
2022/10/19 04:07:25;;;;;;;8.48;2.40;;;;;;;;;;4973758;28;20043;-79
2022/10/19 04:09:54;;;;;;;6.47;2.67;;;;;;;;;;4973848;28;20093;-79
2022/10/19 04:12:20;;;;;;;9.50;3.15;;;;;;;;;;4969554;28;20054;-79
2022/10/19 04:14:46;;;;;;;6.82;1.88;;;;;;;;;;4956223;28;20039;-79
2022/10/19 04:17:13;;;;;;;10.80;2.50;;;;;;;;;;4973645;28;20097;-79
2022/10/19 04:19:42;;;;;;;5.65;2.10;;;;;;;;;;4973097;28;20378;-79
2022/10/19 04:22:08;;;;;;;7.82;2.05;;;;;;;;;;4970634;28;20074;-78
2022/10/19 04:24:34;;;;;;;8.80;3.08;;;;;;;;;;4953822;29;20074;-79
2022/10/19 04:27:01;;;;;;;9.40;2.00;;;;;;;;;;4954391;29;20055;-79
2022/10/19 04:29:27;;;;;;;11.57;2.83;;;;;;;;;;4953902;29;20511;-79
2022/10/19 04:31:53;;;;;;;9.20;2.63;;;;;;;;;;4954136;29;20043;-79
2022/10/19 04:34:19;;;;;;;8.45;2.65;;;;;;;;;;4952017;28;20047;-78
2022/10/19 04:36:45;;;;;;;8.60;2.47;;;;;;;;;;4954055;29;20122;-78
2022/10/19 04:39:12;;;;;;;10.52;2.65;;;;;;;;;;4954448;29;20043;-78
2022/10/19 04:41:38;;;;;;;9.00;1.80;;;;;;;;;;4952832;28;20043;-79
2022/10/19 04:44:07;;;;;;;5.05;2.00;;;;;;;;;;4967829;28;20122;-79
2022/10/19 04:46:33;;;;;;;5.60;1.90;;;;;;;;;;4969012;28;20042;-79
2022/10/19 04:49:00;;;;;;;8.48;2.35;;;;;;;;;;4953620;29;20055;-78
2022/10/19 04:51:26;;;;;;;8.13;2.03;;;;;;;;;;4953850;28;20043;-79
2022/10/19 04:53:52;;;;;;;6.32;1.92;;;;;;;;;;4954042;29;20495;-78
2022/10/19 04:56:19;;;;;;;7.00;2.30;;;;;;;;;;4953797;29;20047;-78
2022/10/19 04:58:46;;;;;;;9.82;2.30;;;;;;;;;;4953899;29;20043;-79
2022/10/19 05:01:13;;;;;;;10.70;2.80;;;;;;;;;;4953725;29;20122;-79
2022/10/19 05:03:39;;;;;;;12.38;2.30;;;;;;;;;;4964242;28;20047;-78
2022/10/19 05:06:06;;;;;;;7.05;1.77;;;;;;;;;;4965588;28;20495;-78
2022/10/19 05:08:32;;;;;;;7.78;2.08;;;;;;;;;;4954270;28;20063;-78
2022/10/19 05:11:06;;;;;;;14.13;2.97;;;;;;;;;;4953531;28;20053;-79
2022/10/19 05:13:33;;;;;;;8.73;2.35;;;;;;;;;;4953405;28;20066;-78
2022/10/19 05:16:00;;;;;;;7.53;2.25;;;;;;;;;;4961947;28;20101;-78
2022/10/19 05:18:26;;;;;;;6.90;2.20;;;;;;;;;;4953321;29;20044;-79
2022/10/19 05:20:59;;;;;;;9.75;2.15;;;;;;;;;;4953279;29;20047;-79
2022/10/19 05:23:26;;;;;;;10.30;2.20;;;;;;;;;;4962932;28;20046;-79
2022/10/19 05:25:58;;;;;;;9.30;2.20;;;;;;;;;;4972291;28;20112;-79
2022/10/19 05:28:24;;;;;;;7.22;2.17;;;;;;;;;;4973119;28;20405;-79
2022/10/19 05:30:50;;;;;;;8.38;2.40;;;;;;;;;;4972568;28;20046;-79
2022/10/19 05:33:16;;;;;;;8.32;2.15;;;;;;;;;;4972307;28;20051;-79
2022/10/19 05:35:42;;;;;;;7.22;2.30;;;;;;;;;;4972542;28;20094;-79
2022/10/19 05:38:08;;;;;;;9.40;2.03;;;;;;;;;;4958441;28;20104;-79
2022/10/19 05:40:34;;;;;;;11.20;3.03;;;;;;;;;;4953104;28;20126;-79
2022/10/19 05:43:00;;;;;;;12.13;2.97;;;;;;;;;;4953015;28;20092;-79
2022/10/19 05:45:26;;;;;;;7.32;2.20;;;;;;;;;;4952220;28;20130;-79
2022/10/19 05:47:53;;;;;;;7.22;2.95;;;;;;;;;;4952986;28;20043;-79
2022/10/19 05:50:19;;;;;;;8.55;2.20;;;;;;;;;;4952091;28;20124;-79
2022/10/19 05:52:45;;;;;;;11.60;2.30;;;;;;;;;;4971397;28;20042;-80
2022/10/19 05:55:11;;;;;;;6.05;2.22;;;;;;;;;;4972267;28;20440;-80
2022/10/19 05:57:38;;;;;;;10.30;2.63;;;;;;;;;;4972191;28;20082;-80
2022/10/19 06:00:04;;;;;;;8.90;2.53;;;;;;;;;;4954567;28;20043;-81
2022/10/19 06:02:31;;;;;;;13.82;3.25;;;;;;;;;;4971035;28;20554;-81
2022/10/19 06:04:57;;;;;;;9.82;3.50;;;;;;;;;;4972076;28;20078;-81
2022/10/19 06:07:23;;;;;;;9.32;2.33;;;;;;;;;;4971703;28;20486;-80
2022/10/19 06:09:49;;;;;;;8.77;2.30;;;;;;;;;;4971623;28;20493;-80
2022/10/19 06:12:15;;;;;;;9.07;2.10;;;;;;;;;;4967315;28;20546;-81
2022/10/19 06:14:41;;;;;;;8.98;2.72;;;;;;;;;;4962583;28;20130;-81
2022/10/19 06:17:08;;;;;;;7.82;2.13;;;;;;;;;;4971981;28;20078;-80
2022/10/19 06:19:34;;;;;;;11.75;2.88;;;;;;;;;;4974094;28;20075;-81
2022/10/19 06:22:00;;;;;;;6.93;2.20;;;;;;;;;;4972330;28;20049;-81
2022/10/19 06:24:26;;;;;;;8.30;2.08;;;;;;;;;;4972287;28;20047;-80
2022/10/19 06:26:52;;;;;;;7.72;2.55;;;;;;;;;;4971581;28;20047;-81
2022/10/19 06:29:18;;;;;;;7.90;2.05;;;;;;;;;;4970225;28;20055;-81
2022/10/19 06:31:45;;;;;;;8.10;2.20;;;;;;;;;;4968734;28;20051;-81
2022/10/19 06:34:11;;;;;;;6.60;2.30;;;;;;;;;;4952602;28;20043;-82
2022/10/19 06:36:37;;;;;;;9.40;2.72;;;;;;;;;;4952723;28;20051;-82
2022/10/19 06:39:03;;;;;;;7.63;2.83;;;;;;;;;;4952575;28;20043;-83
2022/10/19 06:41:30;;;;;;;10.60;2.40;;;;;;;;;;4951955;28;20055;-82
2022/10/19 06:43:56;;;;;;;10.18;2.10;;;;;;;;;;4952701;28;20093;-83
2022/10/19 06:46:24;;;;;;;11.38;2.92;;;;;;;;;;4952516;28;20082;-84
2022/10/19 06:48:54;;;;;;;7.78;2.28;;;;;;;;;;4965770;28;20069;-84
2022/10/19 06:51:20;;;;;;;9.27;2.35;;;;;;;;;;4971633;28;20130;-83
2022/10/19 06:53:47;;;;;;;12.23;2.55;;;;;;;;;;4965139;28;20043;-83
2022/10/19 06:56:13;;;;;;;8.32;2.15;;;;;;;;;;4951904;29;20406;-82
2022/10/19 06:58:39;;;;;;;8.50;2.47;;;;;;;;;;4955662;28;20058;-89
2022/10/19 07:01:06;;;;;;;8.32;2.63;;;;;;;;;;4956149;29;20384;-83
2022/10/19 07:03:32;;;;;;;9.35;2.53;;;;;;;;;;4972928;28;20062;-87
2022/10/19 07:06:00;;;;;;;7.50;2.85;;;;;;;;;;4974238;28;20047;-85
2022/10/19 07:08:27;;;;;;;7.85;2.28;;;;;;;;;;4974918;28;20565;-85
2022/10/19 07:10:55;;;;;;;9.80;2.50;;;;;;;;;;4974778;28;20047;-86
2022/10/19 07:13:21;;;;;;;13.45;2.95;;;;;;;;;;4960155;28;20044;-85
2022/10/19 07:15:56;;;;;;;5.55;2.40;;;;;;;;;;4955517;28;20553;-84
2022/10/19 07:18:24;;;;;;;7.68;2.45;;;;;;;;;;4956521;28;20410;-85
2022/10/19 07:20:58;;;;;;;9.40;2.15;;;;;;;;;;4956024;28;20092;-87
2022/10/19 07:23:25;;;;;;;8.18;2.08;;;;;;;;;;4957279;28;20043;-85
2022/10/19 07:25:52;;;;;;;9.65;2.10;;;;;;;;;;4956509;28;20066;-85
2022/10/19 07:28:19;;;;;;;9.10;1.98;;;;;;;;;;4959419;28;20403;-82
2022/10/19 07:30:45;;;;;;;7.75;1.80;;;;;;;;;;4958502;28;20387;-83
2022/10/19 07:33:11;;;;;;;6.35;2.03;;;;;;;;;;4954100;28;20099;-86
2022/10/19 07:35:37;;;;;;;6.47;1.95;;;;;;;;;;4955266;29;20536;-83
2022/10/19 07:38:03;;;;;;;8.18;2.28;;;;;;;;;;4956890;28;20522;-84
2022/10/19 07:40:29;;;;;;;8.15;2.47;;;;;;;;;;4957136;28;20043;-86
2022/10/19 07:42:55;;;;;;;7.30;1.80;;;;;;;;;;4957344;28;20077;-81
2022/10/19 07:45:21;;;;;;;8.27;1.80;;;;;;;;;;4963717;28;20426;-80
2022/10/19 07:47:47;;;;;;;7.43;2.28;;;;;;;;;;4955778;29;20498;-82
2022/10/19 07:50:13;;;;;;;6.55;2.08;;;;;;;;;;4954913;28;20051;-82
2022/10/19 07:52:39;;;;;;;5.15;2.33;;;;;;;;;;4955790;29;20047;-80
2022/10/19 07:55:06;;;;;;;5.32;2.15;;;;;;;;;;4955287;29;20525;-80
2022/10/19 07:57:32;;;;;;;7.18;2.13;;;;;;;;;;4956667;29;20107;-79
2022/10/19 07:59:58;;;;;;;10.65;2.10;;;;;;;;;;4956830;28;20043;-77
2022/10/19 08:02:27;;;;;;;6.85;2.55;;;;;;;;;;4974301;28;20051;-79
2022/10/19 08:04:53;;;;;;;6.93;1.80;;;;;;;;;;4972426;28;20046;-80
2022/10/19 08:07:19;;;;;;;8.48;2.00;;;;;;;;;;4963550;28;20509;-80
2022/10/19 08:09:45;;;;;;;8.57;2.78;;;;;;;;;;4965899;28;20047;-80
2022/10/19 08:12:11;;;;;;;6.00;2.30;;;;;;;;;;4959119;28;20043;-80
2022/10/19 08:14:37;;;;;;;7.10;1.90;;;;;;;;;;4962704;28;20135;-80
2022/10/19 08:17:03;;;;;;;10.20;2.50;;;;;;;;;;4973014;28;20074;-80
2022/10/19 08:19:29;;;;;;;7.38;1.88;;;;;;;;;;4961372;28;20121;-80
2022/10/19 08:21:55;;;;;;;6.03;2.08;;;;;;;;;;4953481;28;20048;-80
2022/10/19 08:24:21;;;;;;;5.75;2.00;;;;;;;;;;4970513;28;20122;-80
2022/10/19 08:26:50;;;;;;;9.55;2.88;;;;;;;;;;4958460;28;20093;-80
2022/10/19 08:29:17;;;;;;;8.35;2.22;;;;;;;;;;4959656;28;20079;-80
2022/10/19 08:31:44;;;;;;;9.43;2.53;;;;;;;;;;4954603;28;20039;-80
2022/10/19 08:34:11;;;;;;;11.63;2.65;;;;;;;;;;4953508;28;20039;-80
2022/10/19 08:36:37;;;;;;;10.35;3.08;;;;;;;;;;4954859;28;20142;-81
2022/10/19 08:39:04;;;;;;;8.85;2.00;;;;;;;;;;4958233;28;20082;-80
2022/10/19 08:41:39;;;;;;;8.75;2.00;;;;;;;;;;4970213;28;20121;-80
2022/10/19 08:44:14;;;;;;;6.72;2.30;;;;;;;;;;4973430;28;20057;-80
2022/10/19 08:46:59;;;;;;;9.40;2.33;;;;;;;;;;4975799;28;20065;-80
2022/10/19 08:49:26;;;;;;;7.93;2.20;;;;;;;;;;4973446;28;20046;-85
2022/10/19 08:51:58;;;;;;;5.25;1.83;;;;;;;;;;4961834;28;20520;-81
2022/10/19 08:54:26;;;;;;;10.35;2.25;;;;;;;;;;4957399;28;20100;-80
2022/10/19 08:57:15;;;;;;;6.90;1.90;;;;;;;;;;4974213;28;20125;-82
2022/10/19 08:59:47;;;;;;;7.60;2.10;;;;;;;;;;4967545;28;20046;-82
2022/10/19 09:02:19;;;;;;;10.10;2.17;;;;;;;;;;4971784;28;20046;-82
2022/10/19 09:04:48;;;;;;;9.75;2.10;;;;;;;;;;4973362;28;20232;-82
2022/10/19 09:07:14;;;;;;;9.30;2.50;;;;;;;;;;4972749;28;20382;-82
2022/10/19 09:09:46;;;;;;;8.40;2.33;;;;;;;;;;4972925;28;20050;-82
2022/10/19 09:12:14;;;;;;;5.10;2.00;;;;;;;;;;4957414;28;20051;-82
2022/10/19 09:14:55;;;;;;;8.50;2.90;;;;;;;;;;4953679;29;20050;-82
2022/10/19 09:17:23;;;;;;;9.68;3.13;;;;;;;;;;4953614;29;20039;-82
2022/10/19 09:19:50;;;;;;;10.70;2.53;;;;;;;;;;4936134;28;20054;-82
2022/10/19 09:22:19;;;;;;;6.85;1.92;;;;;;;;;;4953286;29;20059;-82
2022/10/19 09:24:53;;;;;;;7.82;2.15;;;;;;;;;;4953164;28;20513;-82
2022/10/19 09:27:24;;;;;;;6.90;2.47;;;;;;;;;;4953619;29;20059;-82
2022/10/19 09:29:53;;;;;;;5.00;1.85;;;;;;;;;;4953468;29;20040;-82
2022/10/19 09:32:24;;;;;;;9.55;2.45;;;;;;;;;;4952122;29;20557;-82
2022/10/19 09:34:52;;;;;;;15.25;2.63;;;;;;;;;;4953556;29;20054;-82
2022/10/19 09:37:19;;;;;;;4.50;1.90;;;;;;;;;;4953279;29;20055;-82
2022/10/19 09:39:47;;;;;;;8.55;2.30;;;;;;;;;;4951934;29;20130;-82
2022/10/19 09:42:16;;;;;;;6.15;2.13;;;;;;;;;;4969744;28;20043;-82
2022/10/19 09:44:42;;;;;;;8.57;1.98;;;;;;;;;;4964140;29;20126;-82
2022/10/19 09:47:15;;;;;;;7.75;2.55;;;;;;;;;;4959130;28;20053;-85
2022/10/19 09:49:45;;;;;;;8.95;2.20;;;;;;;;;;4954136;28;20062;-80
2022/10/19 09:52:26;;;;;;;7.40;2.15;;;;;;;;;;4968096;28;20085;-80
2022/10/19 09:54:59;;;;;;;8.63;1.88;;;;;;;;;;4973185;28;20043;-79
2022/10/19 09:57:25;;;;;;;8.98;2.28;;;;;;;;;;4973836;28;20092;-79
2022/10/19 09:59:54;;;;;;;7.90;2.33;;;;;;;;;;4971707;28;20051;-84
2022/10/19 10:02:27;;;;;;;8.35;2.00;;;;;;;;;;4972751;28;20108;-80
2022/10/19 10:05:03;;;;;;;7.07;2.15;;;;;;;;;;4968458;28;20050;-80
2022/10/19 10:07:33;;;;;;;8.48;2.70;;;;;;;;;;4953035;28;20054;-80
2022/10/19 10:09:59;;;;;;;8.57;2.50;;;;;;;;;;4952781;28;20108;-80
2022/10/19 10:12:25;;;;;;;11.88;2.97;;;;;;;;;;4952960;28;20054;-79
2022/10/19 10:14:55;;;;;;;7.07;2.22;;;;;;;;;;4952703;28;20043;-80
2022/10/19 10:17:22;;;;;;;10.05;2.83;;;;;;;;;;4951108;28;20073;-81
2022/10/19 10:20:03;;;;;;;6.05;2.17;;;;;;;;;;4952636;28;20082;-80
2022/10/19 10:22:31;;;;;;;7.63;2.20;;;;;;;;;;4952684;28;20049;-79
2022/10/19 10:24:58;;;;;;;6.53;2.25;;;;;;;;;;4961682;28;20053;-79
2022/10/19 10:27:32;;;;;;;9.00;2.53;;;;;;;;;;4970384;28;20047;-79
2022/10/19 10:29:58;;;;;;;9.88;2.53;;;;;;;;;;4970824;28;20047;-79
2022/10/19 10:32:25;;;;;;;7.45;1.90;;;;;;;;;;4971150;28;20085;-79
2022/10/19 10:34:57;;;;;;;9.43;2.47;;;;;;;;;;4973077;28;20458;-82
2022/10/19 10:37:32;;;;;;;7.55;2.00;;;;;;;;;;4970452;28;20082;-83
2022/10/19 10:39:59;;;;;;;8.43;2.30;;;;;;;;;;4960855;28;20047;-78
2022/10/19 10:42:29;;;;;;;7.03;2.53;;;;;;;;;;4951664;28;20482;-78
2022/10/19 10:44:56;;;;;;;7.90;1.80;;;;;;;;;;4952524;28;20048;-79
2022/10/19 10:47:22;;;;;;;6.15;1.80;;;;;;;;;;4952306;28;20055;-79
2022/10/19 10:50:00;;;;;;;7.28;2.05;;;;;;;;;;4952806;28;20109;-80
2022/10/19 10:52:30;;;;;;;11.55;2.25;;;;;;;;;;4952285;28;20055;-80
2022/10/19 10:54:58;;;;;;;6.63;2.45;;;;;;;;;;4952356;28;20051;-80
2022/10/19 10:57:32;;;;;;;5.90;2.10;;;;;;;;;;4952541;28;20039;-80
2022/10/19 11:00:10;;;;;;;7.55;2.20;;;;;;;;;;4952075;28;20044;-80
2022/10/19 11:02:48;;;;;;;5.68;2.05;;;;;;;;;;4958759;28;20250;-80
2022/10/19 11:05:17;;;;;;;6.28;1.80;;;;;;;;;;4971207;28;20051;-80
2022/10/19 11:07:45;;;;;;;7.30;2.00;;;;;;;;;;4971851;28;20083;-80
2022/10/19 11:10:31;;;;;;;9.10;2.42;;;;;;;;;;4962279;28;20496;-80
2022/10/19 11:13:14;;;;;;;8.68;1.98;;;;;;;;;;4968203;28;20043;-80
2022/10/19 11:15:55;;;;;;;8.40;2.08;;;;;;;;;;4953051;28;20055;-80
2022/10/19 11:18:41;;;;;;;9.63;2.45;;;;;;;;;;4950861;29;20375;-80
2022/10/19 11:21:10;;;;;;;8.55;2.35;;;;;;;;;;4936549;28;20078;-80
2022/10/19 11:23:51;;;;;;;9.13;2.30;;;;;;;;;;4951534;28;20066;-80
2022/10/19 11:26:29;;;;;;;9.70;2.30;;;;;;;;;;4969297;28;20063;-80
2022/10/19 11:29:21;;;;;;;8.63;2.53;;;;;;;;;;4957661;28;20039;-80
2022/10/19 11:31:49;;;;;;;5.45;2.22;;;;;;;;;;4966597;28;20043;-80
2022/10/19 11:34:37;;;;;;;7.53;2.38;;;;;;;;;;4970956;28;20047;-80
2022/10/19 11:37:18;;;;;;;9.23;2.42;;;;;;;;;;4971860;28;20046;-80
2022/10/19 11:40:20;;;;;;;4.68;2.00;;;;;;;;;;4971942;28;20045;-80
2022/10/19 11:42:54;;;;;;;8.68;2.13;;;;;;;;;;4930056;28;20036;-80
2022/10/19 11:45:24;;;;;;;6.10;1.70;;;;;;;;;;4933397;29;20143;-80
2022/10/19 11:47:58;;;;;;;18.92;3.17;;;;;;;;;;4934498;29;20048;-89
2022/10/19 11:50:30;;;;;;;7.07;2.10;;;;;;;;;;4933659;29;20090;-82
2022/10/19 11:53:10;;;;;;;6.75;2.22;;;;;;;;;;4917643;29;20044;-79
2022/10/19 11:55:37;;;;;;;7.10;2.00;;;;;;;;;;4933491;29;20052;-80
2022/10/19 11:58:13;;;;;;;7.88;2.67;;;;;;;;;;4933390;29;20166;-80
2022/10/19 12:00:39;;;;;;;;;;;;;;;;;;4928550;29;20492;-80
2022/10/19 12:03:17;;;;;;;9.35;2.65;;;;;;;;;;4898385;28;19953;-80
2022/10/19 12:05:50;;;;;;;5.72;2.22;;;;;;;;;;4914396;28;20623;-80
2022/10/19 12:08:28;;;;;;;8.90;2.55;;;;;;;;;;4914282;28;20585;-80
2022/10/19 12:10:55;;;;;;;6.07;2.10;;;;;;;;;;4905242;28;20138;-79
2022/10/19 12:13:28;;;;;;;6.93;2.22;;;;;;;;;;4929727;29;20075;-80
2022/10/19 12:15:55;;;;;;;8.98;2.90;;;;;;;;;;4932180;28;20134;-83
2022/10/19 12:18:27;;;;;;;5.03;1.90;;;;;;;;;;4938267;29;20176;-81
2022/10/19 12:20:56;;;;;;;8.10;2.10;;;;;;;;;;4955419;29;20051;-78
2022/10/19 12:23:26;;;;;;;4.35;2.10;;;;;;;;;;4952755;29;20434;-80
2022/10/19 12:25:55;;;;;;;5.82;2.20;;;;;;;;;;4954138;29;20453;-80
2022/10/19 12:28:24;;;;;;;11.48;3.20;;;;;;;;;;4954320;29;20058;-80
2022/10/19 12:30:51;;;;;;;3.80;1.80;;;;;;;;;;4961674;28;20043;-80
2022/10/19 12:33:28;;;;;;;5.35;2.10;;;;;;;;;;4973032;28;20485;-85
2022/10/19 12:36:18;;;;;;;6.35;1.90;;;;;;;;;;4993079;28;20038;-80
2022/10/19 12:38:47;;;;;;;6.45;1.95;;;;;;;;;;4976590;28;20200;-80
2022/10/19 12:41:23;;;;;;;7.30;1.90;;;;;;;;;;4954130;28;20048;-80
2022/10/19 12:43:52;;;;;;;7.90;2.25;;;;;;;;;;4953767;28;20047;-80
2022/10/19 12:46:18;;;;;;;7.85;2.17;;;;;;;;;;4958070;28;20050;-80
2022/10/19 12:48:44;;;;;;;7.28;1.80;;;;;;;;;;4971921;28;20042;-80
2022/10/19 12:51:11;;;;;;;9.35;2.28;;;;;;;;;;4952622;29;20135;-80
2022/10/19 12:53:39;;;;;;;9.98;2.35;;;;;;;;;;4954077;29;20048;-80
2022/10/19 12:56:10;;;;;;;8.73;2.35;;;;;;;;;;4955146;28;20127;-80
2022/10/19 12:58:39;;;;;;;7.15;1.92;;;;;;;;;;4971770;28;20043;-80
2022/10/19 13:01:06;;;;;;;8.07;2.05;;;;;;;;;;4973181;28;20065;-80
2022/10/19 13:03:33;;;;;;;7.30;2.28;;;;;;;;;;4966811;28;20085;-80
2022/10/19 13:06:01;;;;;;;5.00;2.03;;;;;;;;;;4955918;28;20087;-80
2022/10/19 13:08:29;;;;;;;7.70;2.47;;;;;;;;;;4962841;28;20401;-79
2022/10/19 13:11:06;;;;;;;6.05;2.22;;;;;;;;;;4961289;28;20074;-79
2022/10/19 13:13:52;;;;;;;6.00;1.88;;;;;;;;;;4976053;28;20066;-79
2022/10/19 13:16:30;;;;;;;5.53;2.03;;;;;;;;;;4960257;28;20043;-79
2022/10/19 13:18:59;;;;;;;4.80;1.88;;;;;;;;;;4957066;28;20131;-79
2022/10/19 13:21:44;;;;;;;6.90;1.92;;;;;;;;;;4956368;28;20049;-79
2022/10/19 13:24:25;;;;;;;7.28;2.00;;;;;;;;;;4973810;28;20089;-79
2022/10/19 13:27:03;;;;;;;4.53;1.83;;;;;;;;;;4967688;28;20058;-78
2022/10/19 13:29:38;;;;;;;5.70;2.30;;;;;;;;;;4972886;28;20047;-79
2022/10/19 13:32:23;;;;;;;8.23;2.75;;;;;;;;;;4972944;28;20043;-79
2022/10/19 13:34:49;;;;;;;5.43;2.03;;;;;;;;;;4972876;28;20042;-79
2022/10/19 13:37:18;;;;;;;7.15;2.53;;;;;;;;;;4972814;28;20047;-79
2022/10/19 13:39:44;;;;;;;5.78;2.17;;;;;;;;;;4971433;28;20445;-79
2022/10/19 13:42:23;;;;;;;7.88;2.50;;;;;;;;;;4958823;28;20044;-79
2022/10/19 13:44:51;;;;;;;8.23;2.38;;;;;;;;;;4953874;28;20089;-79
2022/10/19 13:47:37;;;;;;;6.03;2.53;;;;;;;;;;4957140;28;20050;-79
2022/10/19 13:50:21;;;;;;;6.43;2.00;;;;;;;;;;4965949;28;20125;-78
2022/10/19 13:52:53;;;;;;;8.43;2.50;;;;;;;;;;4954806;28;20047;-78
2022/10/19 13:55:26;;;;;;;7.25;2.10;;;;;;;;;;4953793;28;20043;-80
2022/10/19 13:58:12;;;;;;;6.38;1.98;;;;;;;;;;4960161;28;20118;-79
2022/10/19 14:00:57;;;;;;;7.22;2.40;;;;;;;;;;4956022;28;20051;-78
2022/10/19 14:03:35;;;;;;;6.45;2.33;;;;;;;;;;4953655;29;20047;-83
2022/10/19 14:06:01;;;;;;;7.85;2.40;;;;;;;;;;4955567;28;20047;-77
2022/10/19 14:08:39;;;;;;;6.53;2.33;;;;;;;;;;4964520;28;20053;-80
2022/10/19 14:11:12;;;;;;;7.82;2.28;;;;;;;;;;4967223;28;20055;-81
2022/10/19 14:13:38;;;;;;;7.60;2.35;;;;;;;;;;4970833;28;20047;-80
2022/10/19 14:16:04;;;;;;;11.60;3.33;;;;;;;;;;5026079;28;20188;-81
2022/10/19 14:18:31;;;;;;;6.85;2.47;;;;;;;;;;4952417;29;20054;-81
2022/10/19 14:20:59;;;;;;;6.65;2.17;;;;;;;;;;4952423;28;20051;-81
2022/10/19 14:23:30;;;;;;;6.22;2.42;;;;;;;;;;4952283;29;20518;-80
2022/10/19 14:26:00;;;;;;;7.43;2.60;;;;;;;;;;4960678;28;20540;-82
2022/10/19 14:28:33;;;;;;;4.03;2.10;;;;;;;;;;4971660;28;20425;-83
2022/10/19 14:30:59;;;;;;;7.40;2.53;;;;;;;;;;4971917;28;20046;-81
2022/10/19 14:33:26;;;;;;;7.32;2.67;;;;;;;;;;4971823;28;20093;-81
2022/10/19 14:35:52;;;;;;;8.77;2.63;;;;;;;;;;4966162;28;20174;-81
2022/10/19 14:38:21;;;;;;;7.25;2.40;;;;;;;;;;4952238;28;20054;-81
2022/10/19 14:40:47;;;;;;;5.78;2.60;;;;;;;;;;4952391;28;20130;-81
2022/10/19 14:43:29;;;;;;;9.35;3.17;;;;;;;;;;4952327;28;20067;-84
2022/10/19 14:46:07;;;;;;;6.50;2.58;;;;;;;;;;4951215;28;20130;-81
2022/10/19 14:48:34;;;;;;;9.38;2.75;;;;;;;;;;4952671;28;20070;-80
2022/10/19 14:51:00;;;;;;;8.48;2.70;;;;;;;;;;4953584;28;20048;-87
2022/10/19 14:53:39;;;;;;;8.40;2.50;;;;;;;;;;4955842;28;20109;-80
2022/10/19 14:56:12;;;;;;;7.35;2.83;;;;;;;;;;4954874;28;20044;-81